createdAt,value
2022-10-18T00:00:05.400Z,17.30
2022-10-18T00:02:31.980Z,10.87
2022-10-18T00:04:58.514Z,13.23
2022-10-18T00:07:25.034Z,9.90
2022-10-18T00:09:51.596Z,10.17
2022-10-18T00:12:18.101Z,10.13
2022-10-18T00:14:44.618Z,10.00
2022-10-18T00:17:11.157Z,10.80
2022-10-18T00:19:37.642Z,10.47
2022-10-18T00:22:04.279Z,11.17
2022-10-18T00:24:30.857Z,11.27
2022-10-18T00:26:57.369Z,12.33
2022-10-18T00:29:23.840Z,11.10
2022-10-18T00:31:50.328Z,12.83
2022-10-18T00:34:16.829Z,12.43
2022-10-18T00:36:43.325Z,13.27
2022-10-18T00:39:09.878Z,15.57
2022-10-18T00:41:36.400Z,14.03
2022-10-18T00:44:02.863Z,16.30
2022-10-18T00:46:29.385Z,15.87
2022-10-18T00:48:55.904Z,11.57
2022-10-18T00:51:22.390Z,11.40
2022-10-18T00:53:49.880Z,13.20
2022-10-18T00:56:16.349Z,11.67
2022-10-18T00:58:42.839Z,11.10
2022-10-18T01:01:09.417Z,11.73
2022-10-18T01:03:35.926Z,12.10
2022-10-18T01:06:02.440Z,12.80
2022-10-18T01:08:28.944Z,12.73
2022-10-18T01:10:55.465Z,14.87
2022-10-18T01:13:24.870Z,15.03
2022-10-18T01:15:52.467Z,16.50
2022-10-18T01:18:19.007Z,12.83
2022-10-18T01:20:45.529Z,13.80
2022-10-18T01:23:12.035Z,15.73
2022-10-18T01:25:38.501Z,12.00
2022-10-18T01:28:05.005Z,10.77
2022-10-18T01:30:31.521Z,13.47
2022-10-18T01:32:58.045Z,11.97
2022-10-18T01:35:24.542Z,11.53
2022-10-18T01:37:51.019Z,12.20
2022-10-18T01:40:17.525Z,12.17
2022-10-18T01:42:44.034Z,13.13
2022-10-18T01:45:10.567Z,16.13
2022-10-18T01:47:37.053Z,15.30
2022-10-18T01:50:03.596Z,12.07
2022-10-18T01:52:30.588Z,13.03
2022-10-18T01:54:57.184Z,22.13
2022-10-18T01:57:23.732Z,21.53
2022-10-18T01:59:50.211Z,14.93
2022-10-18T02:02:16.677Z,15.00
2022-10-18T02:04:43.193Z,16.03
2022-10-18T02:07:09.702Z,14.30
2022-10-18T02:12:04.596Z,17.47
2022-10-18T02:14:31.067Z,13.60
2022-10-18T02:16:57.602Z,13.43
2022-10-18T02:21:51.683Z,13.63
2022-10-18T02:24:18.153Z,10.73
2022-10-18T02:26:44.729Z,11.13
2022-10-18T02:29:11.210Z,12.70
2022-10-18T02:31:37.969Z,10.07
2022-10-18T02:34:04.492Z,12.20
2022-10-18T02:36:30.965Z,10.47
2022-10-18T02:38:57.444Z,12.40
2022-10-18T02:41:23.925Z,17.00
2022-10-18T02:43:50.466Z,11.30
2022-10-18T02:46:17.047Z,10.87
2022-10-18T02:48:43.553Z,11.33
2022-10-18T02:51:10.110Z,10.17
2022-10-18T02:53:36.630Z,10.07
2022-10-18T02:56:03.109Z,16.33
2022-10-18T02:58:29.621Z,17.43
2022-10-18T03:00:56.089Z,10.43
2022-10-18T03:03:22.557Z,16.70
2022-10-18T03:05:49.089Z,10.50
2022-10-18T03:08:15.610Z,13.27
2022-10-18T03:10:42.132Z,12.57
2022-10-18T03:13:08.662Z,12.70
2022-10-18T03:15:35.172Z,11.67
2022-10-18T03:18:01.805Z,11.37
2022-10-18T03:20:28.318Z,10.23
2022-10-18T03:22:54.831Z,13.63
2022-10-18T03:25:21.353Z,14.43
2022-10-18T03:27:47.830Z,10.27
2022-10-18T03:30:14.346Z,13.67
2022-10-18T03:32:40.885Z,11.47
2022-10-18T03:35:07.397Z,10.70
2022-10-18T03:37:33.883Z,9.60
2022-10-18T03:40:00.554Z,13.53
2022-10-18T03:42:27.035Z,12.73
2022-10-18T03:44:53.513Z,12.67
2022-10-18T03:47:20.037Z,13.47
2022-10-18T03:49:46.597Z,12.33
2022-10-18T03:52:13.113Z,13.50
2022-10-18T03:54:39.584Z,12.87
2022-10-18T03:57:06.122Z,13.47
2022-10-18T03:59:32.618Z,11.73
2022-10-18T04:01:59.233Z,15.80
2022-10-18T04:04:25.792Z,10.90
2022-10-18T04:06:52.265Z,10.13
2022-10-18T04:09:18.787Z,11.87
2022-10-18T04:11:45.311Z,13.67
2022-10-18T04:14:11.784Z,10.77
2022-10-18T04:16:38.323Z,10.00
2022-10-18T04:19:04.896Z,12.13
2022-10-18T04:21:31.419Z,11.00
2022-10-18T04:23:57.898Z,8.43
2022-10-18T04:26:24.467Z,11.53
2022-10-18T04:28:51.025Z,15.13
2022-10-18T04:31:17.555Z,11.97
2022-10-18T04:33:44.040Z,10.87
2022-10-18T04:36:10.580Z,9.40
2022-10-18T04:38:37.048Z,10.27
2022-10-18T04:41:03.516Z,10.13
2022-10-18T04:43:30.001Z,11.07
2022-10-18T04:45:56.487Z,10.87
2022-10-18T04:48:23.022Z,13.93
2022-10-18T04:50:49.538Z,8.30
2022-10-18T04:53:16.018Z,13.43
2022-10-18T04:55:42.484Z,11.27
2022-10-18T04:58:09.001Z,13.47
2022-10-18T05:00:39.853Z,11.90
2022-10-18T05:03:06.688Z,10.43
2022-10-18T05:05:49.860Z,11.17
2022-10-18T05:08:20.784Z,10.30
2022-10-18T05:10:47.313Z,12.47
2022-10-18T05:13:13.786Z,12.90
2022-10-18T05:15:40.301Z,9.77
2022-10-18T05:18:06.805Z,9.10
2022-10-18T05:20:33.277Z,12.00
2022-10-18T05:22:59.805Z,14.57
2022-10-18T05:25:26.287Z,8.33
2022-10-18T05:27:52.837Z,8.37
2022-10-18T05:30:19.355Z,8.40
2022-10-18T05:32:45.837Z,8.63
2022-10-18T05:35:12.366Z,9.30
2022-10-18T05:37:38.836Z,16.40
2022-10-18T05:40:05.341Z,10.13
2022-10-18T05:42:32.025Z,11.60
2022-10-18T05:44:58.628Z,11.53
2022-10-18T05:47:25.175Z,12.20
2022-10-18T05:49:51.774Z,11.87
2022-10-18T05:52:18.284Z,9.37
2022-10-18T05:54:44.763Z,10.13
2022-10-18T05:57:11.327Z,10.27
2022-10-18T05:59:37.816Z,11.70
2022-10-18T06:02:04.323Z,11.13
2022-10-18T06:04:30.853Z,10.43
2022-10-18T06:06:57.333Z,11.83
2022-10-18T06:09:23.858Z,10.80
2022-10-18T06:11:50.377Z,9.40
2022-10-18T06:14:16.845Z,8.80
2022-10-18T06:16:43.396Z,10.13
2022-10-18T06:19:09.896Z,9.97
2022-10-18T06:21:36.367Z,11.20
2022-10-18T06:24:02.913Z,10.83
2022-10-18T06:26:29.421Z,10.67
2022-10-18T06:28:55.935Z,9.47
2022-10-18T06:31:22.506Z,7.90
2022-10-18T06:33:48.987Z,11.30
2022-10-18T06:36:15.462Z,9.63
2022-10-18T06:38:43.002Z,10.80
2022-10-18T06:41:09.469Z,8.80
2022-10-18T06:43:35.969Z,8.97
2022-10-18T06:46:02.517Z,8.80
2022-10-18T06:48:28.993Z,8.87
2022-10-18T06:50:55.537Z,8.07
2022-10-18T06:53:22.039Z,8.67
2022-10-18T06:55:48.546Z,9.30
2022-10-18T06:58:15.053Z,10.50
2022-10-18T07:00:41.553Z,7.90
2022-10-18T07:03:08.021Z,8.63
2022-10-18T07:05:34.491Z,9.00
2022-10-18T07:08:01.005Z,8.43
2022-10-18T07:10:27.472Z,9.57
2022-10-18T07:13:07.968Z,7.90
2022-10-18T07:15:40.418Z,8.10
2022-10-18T07:18:07.134Z,8.83
2022-10-18T07:20:33.654Z,10.17
2022-10-18T07:23:00.124Z,12.03
2022-10-18T07:25:28.526Z,11.93
2022-10-18T07:27:56.981Z,13.83
2022-10-18T07:30:23.467Z,11.37
2022-10-18T07:32:50.017Z,10.67
2022-10-18T07:35:16.489Z,11.70
2022-10-18T07:37:42.973Z,10.47
2022-10-18T07:40:09.474Z,10.87
2022-10-18T07:42:35.958Z,11.63
2022-10-18T07:45:02.474Z,10.33
2022-10-18T07:47:31.305Z,12.37
2022-10-18T07:50:00.803Z,11.47
2022-10-18T07:52:27.316Z,13.03
2022-10-18T07:54:53.835Z,12.33
2022-10-18T07:57:20.346Z,12.27
2022-10-18T07:59:46.885Z,16.47
2022-10-18T08:02:13.404Z,13.57
2022-10-18T08:04:39.932Z,16.23
2022-10-18T08:07:06.432Z,12.90
2022-10-18T08:09:32.899Z,13.73
2022-10-18T08:11:59.450Z,13.33
2022-10-18T08:14:25.981Z,13.13
2022-10-18T08:16:52.469Z,12.13
2022-10-18T08:19:19.014Z,14.90
2022-10-18T08:21:45.663Z,11.97
2022-10-18T08:24:12.169Z,15.20
2022-10-18T08:26:38.653Z,12.33
2022-10-18T08:29:22.507Z,15.60
2022-10-18T08:31:51.420Z,23.73
2022-10-18T08:34:24.629Z,14.50
2022-10-18T08:36:51.156Z,18.50
2022-10-18T08:39:17.845Z,20.80
2022-10-18T08:41:44.543Z,20.60
2022-10-18T08:44:11.066Z,23.53
2022-10-18T08:46:37.546Z,29.27
2022-10-18T08:49:05.081Z,30.80
2022-10-18T08:51:31.555Z,25.10
2022-10-18T08:53:58.077Z,27.57
2022-10-18T08:56:24.614Z,25.03
2022-10-18T08:58:51.136Z,22.67
2022-10-18T09:01:17.694Z,27.07
2022-10-18T09:03:44.235Z,25.50
2022-10-18T09:06:10.742Z,25.57
2022-10-18T09:08:37.237Z,27.03
2022-10-18T09:11:03.782Z,26.40
2022-10-18T09:13:30.244Z,28.40
2022-10-18T09:15:56.728Z,24.87
2022-10-18T09:18:23.255Z,24.87
2022-10-18T09:20:49.721Z,25.27
2022-10-18T09:23:16.207Z,23.90
2022-10-18T09:25:42.751Z,22.67
2022-10-18T09:28:09.256Z,23.13
2022-10-18T09:30:35.764Z,23.47
2022-10-18T09:33:02.280Z,23.07
2022-10-18T09:35:28.795Z,22.70
2022-10-18T09:37:55.318Z,25.43
2022-10-18T09:40:21.969Z,26.70
2022-10-18T09:42:48.556Z,24.50
2022-10-18T09:45:15.083Z,24.50
2022-10-18T09:47:41.638Z,25.33
2022-10-18T09:50:08.322Z,16.23
2022-10-18T09:52:34.930Z,17.77
2022-10-18T09:55:01.513Z,16.37
2022-10-18T09:57:28.026Z,14.90
2022-10-18T09:59:54.541Z,15.57
2022-10-18T10:02:21.083Z,16.93
2022-10-18T10:04:48.083Z,18.17
2022-10-18T10:07:15.024Z,15.57
2022-10-18T10:09:41.570Z,16.80
2022-10-18T10:12:08.072Z,15.87
2022-10-18T10:14:34.555Z,14.57
2022-10-18T10:17:01.082Z,12.77
2022-10-18T10:19:27.554Z,11.93
2022-10-18T10:21:54.098Z,13.13
2022-10-18T10:24:20.610Z,17.20
2022-10-18T10:26:47.117Z,16.43
2022-10-18T10:29:17.743Z,18.93
2022-10-18T10:31:54.251Z,18.47
2022-10-18T10:34:20.737Z,18.97
2022-10-18T10:36:47.248Z,19.90
2022-10-18T10:39:13.755Z,20.27
2022-10-18T10:41:40.265Z,17.67
2022-10-18T10:44:06.918Z,18.53
2022-10-18T10:46:33.432Z,17.33
2022-10-18T10:49:27.980Z,14.47
2022-10-18T10:51:50.633Z,15.63
2022-10-18T10:54:24.286Z,15.13
2022-10-18T10:56:50.837Z,16.87
2022-10-18T10:59:17.305Z,14.60
2022-10-18T11:01:43.830Z,16.83
2022-10-18T11:04:10.390Z,15.80
2022-10-18T11:06:36.916Z,16.50
2022-10-18T11:09:03.434Z,17.90
2022-10-18T11:11:30.090Z,14.67
2022-10-18T11:14:13.536Z,15.17
2022-10-18T11:16:43.137Z,15.83
2022-10-18T11:19:09.650Z,17.60
2022-10-18T11:21:36.157Z,14.37
2022-10-18T11:24:02.641Z,15.07
2022-10-18T11:26:29.189Z,17.93
2022-10-18T11:28:55.772Z,14.23
2022-10-18T11:31:22.294Z,14.93
2022-10-18T11:34:08.297Z,13.97
2022-10-18T11:36:36.742Z,12.77
2022-10-18T11:39:03.443Z,16.47
2022-10-18T11:41:29.949Z,15.13
2022-10-18T11:44:03.996Z,16.03
2022-10-18T11:46:30.617Z,15.13
2022-10-18T11:48:57.122Z,18.67
2022-10-18T11:51:34.108Z,15.30
2022-10-18T11:54:10.096Z,12.73
2022-10-18T11:56:36.565Z,16.27
2022-10-18T11:59:03.106Z,13.40
2022-10-18T12:01:29.574Z,14.80
2022-10-18T12:03:56.126Z,15.07
2022-10-18T12:06:22.646Z,11.67
2022-10-18T12:08:49.156Z,13.83
2022-10-18T12:11:15.699Z,16.73
2022-10-18T12:13:42.211Z,13.73
2022-10-18T12:16:08.741Z,15.77
2022-10-18T12:18:35.242Z,15.00
2022-10-18T12:21:01.750Z,13.50
2022-10-18T12:23:28.308Z,14.10
2022-10-18T12:25:54.855Z,13.53
2022-10-18T12:28:21.533Z,13.20
2022-10-18T12:30:48.035Z,12.87
2022-10-18T12:33:27.795Z,16.87
2022-10-18T12:35:55.013Z,16.30
2022-10-18T12:38:21.586Z,14.03
2022-10-18T12:40:48.106Z,13.93
2022-10-18T12:43:14.586Z,14.83
2022-10-18T12:45:42.129Z,12.53
2022-10-18T12:48:08.636Z,13.73
2022-10-18T12:50:35.143Z,15.20
2022-10-18T12:53:01.678Z,15.10
2022-10-18T12:55:28.189Z,13.57
2022-10-18T12:57:54.700Z,14.23
2022-10-18T13:00:21.171Z,18.23
2022-10-18T13:02:47.686Z,18.23
2022-10-18T13:05:26.952Z,17.03
2022-10-18T13:08:00.730Z,15.40
2022-10-18T13:10:27.235Z,14.63
2022-10-18T13:12:53.746Z,17.27
2022-10-18T13:15:26.364Z,14.53
2022-10-18T13:17:54.168Z,15.50
2022-10-18T13:20:26.067Z,19.17
2022-10-18T13:22:53.090Z,17.13
2022-10-18T13:25:19.561Z,18.07
2022-10-18T13:27:46.269Z,19.37
2022-10-18T13:30:12.936Z,14.73
2022-10-18T13:32:39.443Z,16.10
2022-10-18T13:35:05.981Z,16.50
2022-10-18T13:37:32.493Z,16.73
2022-10-18T13:39:59.038Z,15.10
2022-10-18T13:42:25.553Z,19.40
2022-10-18T13:44:52.069Z,16.70
2022-10-18T13:47:18.626Z,14.03
2022-10-18T13:49:45.173Z,14.40
2022-10-18T13:52:11.689Z,12.87
2022-10-18T13:54:38.370Z,11.20
2022-10-18T13:57:04.888Z,15.47
2022-10-18T13:59:31.412Z,11.03
2022-10-18T14:01:58.016Z,13.37
2022-10-18T14:04:24.560Z,10.67
2022-10-18T14:06:51.098Z,10.90
2022-10-18T14:09:26.212Z,11.53
2022-10-18T14:12:04.101Z,13.03
2022-10-18T14:14:30.580Z,12.40
2022-10-18T14:16:57.199Z,11.33
2022-10-18T14:19:23.758Z,13.63
2022-10-18T14:21:50.251Z,9.90
2022-10-18T14:24:16.759Z,7.93
2022-10-18T14:26:43.312Z,9.73
2022-10-18T14:29:09.881Z,11.93
2022-10-18T14:31:36.385Z,14.70
2022-10-18T14:34:02.912Z,19.13
2022-10-18T14:36:29.472Z,13.83
2022-10-18T14:38:56.006Z,15.40
2022-10-18T14:41:22.520Z,17.00
2022-10-18T14:43:49.029Z,13.27
2022-10-18T14:46:15.533Z,12.03
2022-10-18T14:48:42.057Z,15.67
2022-10-18T14:51:08.601Z,20.57
2022-10-18T14:53:35.102Z,13.80
2022-10-18T14:56:01.574Z,14.97
2022-10-18T14:58:28.092Z,12.83
2022-10-18T15:00:54.557Z,16.87
2022-10-18T15:03:21.054Z,13.50
2022-10-18T15:05:47.600Z,12.67
2022-10-18T15:08:14.065Z,14.00
2022-10-18T15:10:40.529Z,14.67
2022-10-18T15:13:11.224Z,11.57
2022-10-18T15:15:38.086Z,13.87
2022-10-18T15:18:04.601Z,13.27
2022-10-18T15:20:31.124Z,14.50
2022-10-18T15:22:57.658Z,13.17
2022-10-18T15:25:26.749Z,11.70
2022-10-18T15:27:54.514Z,12.63
2022-10-18T15:30:21.000Z,11.97
2022-10-18T15:32:47.517Z,9.97
2022-10-18T15:35:14.196Z,9.47
2022-10-18T15:37:40.712Z,11.20
2022-10-18T15:40:07.219Z,13.80
2022-10-18T15:42:33.718Z,11.93
2022-10-18T15:45:00.237Z,13.60
2022-10-18T15:47:26.743Z,11.20
2022-10-18T15:49:53.254Z,11.00
2022-10-18T15:52:19.761Z,12.87
2022-10-18T15:54:46.304Z,10.43
2022-10-18T15:57:12.812Z,12.37
2022-10-18T15:59:39.317Z,12.67
2022-10-18T16:02:05.877Z,12.60
2022-10-18T16:04:32.408Z,13.50
2022-10-18T16:06:58.904Z,16.70
2022-10-18T16:09:25.425Z,12.53
2022-10-18T16:11:56.655Z,14.57
2022-10-18T16:14:23.634Z,12.47
2022-10-18T16:16:50.104Z,12.40
2022-10-18T16:19:16.610Z,12.13
2022-10-18T16:21:43.072Z,18.07
2022-10-18T16:24:09.571Z,11.90
2022-10-18T16:26:36.068Z,14.23
2022-10-18T16:29:02.548Z,15.17
2022-10-18T16:31:29.081Z,14.13
2022-10-18T16:33:55.578Z,12.77
2022-10-18T16:36:22.060Z,17.53
2022-10-18T16:38:48.577Z,13.53
2022-10-18T16:41:15.094Z,14.33
2022-10-18T16:43:41.605Z,14.23
2022-10-18T16:46:08.120Z,11.40
2022-10-18T16:48:34.657Z,13.13
2022-10-18T16:51:01.187Z,12.43
2022-10-18T16:53:27.860Z,13.33
2022-10-18T16:55:54.378Z,15.57
2022-10-18T16:58:20.888Z,15.07
2022-10-18T17:00:47.465Z,16.40
2022-10-18T17:03:13.988Z,14.50
2022-10-18T17:05:40.505Z,13.23
2022-10-18T17:08:07.048Z,16.03
2022-10-18T17:10:33.572Z,16.83
2022-10-18T17:13:00.189Z,19.20
2022-10-18T17:15:27.968Z,18.50
2022-10-18T17:17:56.892Z,16.40
2022-10-18T17:20:23.395Z,17.43
2022-10-18T17:22:49.908Z,17.43
2022-10-18T17:25:16.414Z,18.50
2022-10-18T17:27:42.884Z,16.57
2022-10-18T17:30:09.405Z,17.73
2022-10-18T17:32:35.941Z,16.03
2022-10-18T17:35:02.454Z,16.17
2022-10-18T17:37:28.973Z,17.63
2022-10-18T17:39:55.519Z,15.97
2022-10-18T17:42:22.069Z,15.57
2022-10-18T17:44:48.620Z,15.70
2022-10-18T17:47:15.125Z,14.07
2022-10-18T17:49:41.601Z,15.37
2022-10-18T17:52:08.158Z,15.57
2022-10-18T17:54:34.662Z,18.33
2022-10-18T17:57:01.128Z,18.50
2022-10-18T17:59:27.664Z,14.00
2022-10-18T18:01:54.176Z,17.40
2022-10-18T18:04:20.689Z,12.90
2022-10-18T18:06:47.218Z,14.30
2022-10-18T18:09:13.736Z,12.80
2022-10-18T18:11:40.242Z,14.27
2022-10-18T18:14:06.707Z,13.47
2022-10-18T18:16:33.233Z,15.30
2022-10-18T18:18:59.737Z,14.90
2022-10-18T18:21:26.268Z,15.47
2022-10-18T18:23:52.745Z,16.30
2022-10-18T18:26:19.257Z,15.27
2022-10-18T18:28:46.011Z,15.43
2022-10-18T18:31:12.642Z,16.97
2022-10-18T18:33:39.182Z,13.73
2022-10-18T18:36:05.689Z,18.00
2022-10-18T18:38:32.201Z,13.63
2022-10-18T18:40:58.754Z,15.57
2022-10-18T18:43:25.229Z,18.00
2022-10-18T18:45:51.753Z,16.50
2022-10-18T18:48:19.886Z,15.20
2022-10-18T18:50:46.645Z,13.83
2022-10-18T18:53:13.151Z,14.97
2022-10-18T18:55:39.682Z,16.63
2022-10-18T18:58:06.196Z,20.07
2022-10-18T19:00:32.721Z,17.57
2022-10-18T19:02:59.242Z,15.47
2022-10-18T19:05:25.752Z,16.40
2022-10-18T19:07:52.280Z,19.00
2022-10-18T19:10:18.790Z,15.87
2022-10-18T19:12:45.313Z,15.23
2022-10-18T19:15:11.901Z,15.43
2022-10-18T19:17:38.404Z,14.57
2022-10-18T19:20:04.908Z,15.27
2022-10-18T19:22:31.545Z,20.00
2022-10-18T19:24:58.060Z,15.77
2022-10-18T19:27:24.546Z,15.33
2022-10-18T19:29:51.060Z,20.57
2022-10-18T19:32:17.626Z,17.90
2022-10-18T19:34:44.210Z,17.10
2022-10-18T19:37:10.725Z,17.07
2022-10-18T19:39:37.230Z,22.00
2022-10-18T19:42:03.753Z,20.40
2022-10-18T19:44:30.220Z,18.13
2022-10-18T19:46:56.756Z,20.03
2022-10-18T19:49:23.274Z,21.67
2022-10-18T19:51:49.785Z,19.67
2022-10-18T19:54:16.330Z,17.97
2022-10-18T19:56:42.863Z,19.33
2022-10-18T19:59:09.369Z,15.73
2022-10-18T20:01:35.923Z,16.83
2022-10-18T20:04:02.465Z,16.43
2022-10-18T20:06:28.972Z,14.33
2022-10-18T20:08:55.489Z,16.93
2022-10-18T20:11:21.989Z,14.80
2022-10-18T20:13:48.549Z,14.43
2022-10-18T20:16:15.015Z,15.87
2022-10-18T20:18:41.522Z,12.77
2022-10-18T20:21:08.065Z,14.07
2022-10-18T20:23:34.532Z,12.80
2022-10-18T20:26:01.045Z,13.47
2022-10-18T20:28:27.606Z,13.53
2022-10-18T20:30:54.178Z,14.87
2022-10-18T20:33:20.654Z,12.57
2022-10-18T20:35:51.415Z,12.40
2022-10-18T20:38:18.683Z,16.13
2022-10-18T20:40:45.185Z,16.30
2022-10-18T20:43:11.698Z,10.50
2022-10-18T20:45:38.240Z,12.00
2022-10-18T20:48:04.749Z,10.93
2022-10-18T20:50:31.270Z,11.80
2022-10-18T20:52:57.749Z,13.47
2022-10-18T20:55:24.285Z,13.27
2022-10-18T20:57:50.803Z,11.03
2022-10-18T21:00:17.278Z,10.27
2022-10-18T21:02:43.825Z,9.77
2022-10-18T21:05:10.332Z,12.77
2022-10-18T21:07:36.894Z,14.80
2022-10-18T21:10:03.453Z,12.43
2022-10-18T21:12:30.157Z,16.13
2022-10-18T21:14:56.970Z,13.07
2022-10-18T21:17:23.513Z,11.17
2022-10-18T21:19:49.993Z,15.10
2022-10-18T21:22:16.501Z,13.30
2022-10-18T21:24:43.028Z,13.07
2022-10-18T21:27:09.537Z,12.97
2022-10-18T21:29:36.077Z,12.13
2022-10-18T21:37:23.259Z,14.63
2022-10-18T21:39:49.746Z,14.60
2022-10-18T21:42:16.226Z,11.97
2022-10-18T21:44:42.726Z,11.77
2022-10-18T21:47:09.211Z,10.43
2022-10-18T21:49:35.765Z,9.63
2022-10-18T21:52:02.246Z,9.23
2022-10-18T21:54:28.726Z,9.17
2022-10-18T21:56:55.286Z,10.93
2022-10-18T21:59:21.776Z,10.97
2022-10-18T22:01:48.261Z,12.57
2022-10-18T22:04:14.849Z,9.90
2022-10-18T22:06:41.347Z,9.80
2022-10-18T22:09:07.833Z,8.03
2022-10-18T22:11:34.542Z,5.97
2022-10-18T22:14:01.001Z,5.17
2022-10-18T22:16:27.445Z,5.80
2022-10-18T22:18:53.950Z,5.73
2022-10-18T22:21:20.447Z,4.60
2022-10-18T22:23:46.927Z,4.90
2022-10-18T22:26:13.420Z,4.63
2022-10-18T22:28:39.967Z,12.50
2022-10-18T22:31:06.445Z,6.53
2022-10-18T22:33:32.992Z,6.30
2022-10-18T22:35:59.542Z,2.83
2022-10-18T22:38:26.068Z,5.17
2022-10-18T22:40:52.540Z,2.63
2022-10-18T22:43:19.044Z,3.03
2022-10-18T22:45:45.582Z,3.10
2022-10-18T22:48:12.098Z,2.77
2022-10-18T22:50:38.574Z,4.23
2022-10-18T22:53:05.096Z,3.47
2022-10-18T22:55:31.596Z,2.43
2022-10-18T22:57:58.094Z,2.67
2022-10-18T23:00:24.681Z,9.83
2022-10-18T23:02:51.244Z,6.03
2022-10-18T23:05:17.725Z,7.27
2022-10-18T23:07:44.238Z,5.10
2022-10-18T23:10:10.755Z,2.80
2022-10-18T23:12:37.216Z,6.83
2022-10-18T23:15:03.761Z,3.90
2022-10-18T23:17:30.382Z,5.83
2022-10-18T23:19:56.908Z,2.87
2022-10-18T23:22:23.450Z,11.87
2022-10-18T23:24:49.961Z,3.80
2022-10-18T23:27:16.468Z,3.10
2022-10-18T23:29:42.995Z,3.20
2022-10-18T23:32:09.508Z,3.27
2022-10-18T23:34:36.045Z,6.07
2022-10-18T23:37:02.554Z,3.77
2022-10-18T23:39:29.061Z,3.20
2022-10-18T23:41:55.581Z,4.70
2022-10-18T23:44:22.092Z,3.60
2022-10-18T23:46:48.665Z,4.10
2022-10-18T23:49:15.183Z,3.13
2022-10-18T23:51:41.711Z,3.87
2022-10-18T23:54:08.226Z,3.20
2022-10-18T23:56:34.748Z,3.00
2022-10-18T23:59:01.256Z,3.40
